Terminal Aerodrome Forecast
Issued by NWS

Home | Current Version | Previous Version | Graphics & Text | Print | Product List | Glossary On
Versions: 1 2 3 4 5 6 7 8 9 10 11 12 13 14 15 16 17 18 19 20 21 22 23 24
000
FTUS43 KLOT 180535
TAFGYY
TAF
KGYY 180535Z 1806/1906 04006KT P6SM SKC
     FM181300 08014G20KT P6SM BKN050 OVC120
     FM181700 06015G25KT 4SM -SHRA VCTS OVC025CB PROB30 1817/1820
      2SM TSRAGS
     FM182000 01012G22KT 1SM -DZRA BR OVC004=

USA.gov is the U.S. government's official web portal to all federal, state and local government web resources and services.